Time;durP1;ratioP1;P1;durP2;ratioP2;P2;SDS_P1;SDS_P2;PMS_P1;PMS_P2;Temp;Humidity;BMP_temperature;BMP_pressure;BME280_temperature;BME280_humidity;BME280_pressure;Samples;Min_cycle;Max_cycle;Signal;HPM_P1;HPM_P2
2022/08/09 00:00:05;;;;;;;;;;;;;;;25.92;44.97;95103.78;4991233;28;19940;-59
2022/08/09 00:02:31;;;;;;;;;;;;;;;25.90;45.25;95117.28;4990905;28;19922;-68
2022/08/09 00:04:56;;;;;;;;;;;;;;;25.79;45.34;95095.56;4994861;28;19924;-60
2022/08/09 00:07:21;;;;;;;;;;;;;;;25.91;45.08;95112.53;4994174;28;20308;-67
2022/08/09 00:09:47;;;;;;;;;;;;;;;25.91;45.08;95113.25;4996994;28;19918;-70
2022/08/09 00:12:12;;;;;;;;;;;;;;;25.89;45.12;95115.78;4991188;28;20000;-69
2022/08/09 00:14:37;;;;;;;;;;;;;;;25.88;44.83;95114.31;5004083;28;20450;-68
2022/08/09 00:17:04;;;;;;;;;;;;;;;25.90;44.86;95117.28;4990931;28;19921;-63
2022/08/09 00:19:29;;;;;;;;;;;;;;;25.91;44.44;95113.25;4986286;28;19928;-68
2022/08/09 00:21:55;;;;;;;;;;;;;;;25.90;44.41;95111.81;4997117;28;20307;-63
2022/08/09 00:24:20;;;;;;;;;;;;;;;25.88;44.36;95119.06;4993283;28;19968;-60
2022/08/09 00:26:45;;;;;;;;;;;;;;;25.84;44.36;95115.88;4992749;28;19979;-61
2022/08/09 00:29:11;;;;;;;;;;;;;;;25.81;44.30;95119.66;4989743;28;19983;-59
2022/08/09 00:31:36;;;;;;;;;;;;;;;25.75;44.40;95121.75;4994589;28;19914;-60
2022/08/09 00:34:01;;;;;;;;;;;;;;;25.69;44.30;95117.63;4986941;28;19922;-60
2022/08/09 00:36:27;;;;;;;;;;;;;;;25.62;44.61;95123.66;4995816;28;20248;-63
2022/08/09 00:38:52;;;;;;;;;;;;;;;25.56;44.75;95123.00;5004033;28;20332;-61
2022/08/09 00:41:21;;;;;;;;;;;;;;;25.51;45.14;95118.38;4994475;28;19929;-63
2022/08/09 00:43:46;;;;;;;;;;;;;;;25.47;45.69;95112.47;4987284;28;20716;-60
2022/08/09 00:46:11;;;;;;;;;;;;;;;25.47;45.63;95128.88;4994682;28;20008;-62
2022/08/09 00:48:37;;;;;;;;;;;;;;;25.45;45.69;95125.94;4987134;28;19938;-64
2022/08/09 00:51:03;;;;;;;;;;;;;;;25.47;45.93;95117.94;4990877;28;20016;-59
2022/08/09 00:53:29;;;;;;;;;;;;;;;25.50;45.89;95123.13;4987070;28;19922;-59
2022/08/09 00:55:54;;;;;;;;;;;;;;;25.42;45.65;95126.97;4984990;28;20410;-59
2022/08/09 00:58:19;;;;;;;;;;;;;;;25.36;45.85;95137.25;4991990;28;19917;-59
2022/08/09 01:00:45;;;;;;;;;;;;;;;25.36;46.39;95129.03;4986060;28;19940;-58
2022/08/09 01:03:13;;;;;;;;;;;;;;;25.38;46.29;95134.72;5008439;28;20337;-62
2022/08/09 01:05:41;;;;;;;;;;;;;;;25.39;46.13;95138.94;4989298;28;19918;-59
2022/08/09 01:08:08;;;;;;;;;;;;;;;25.39;46.15;95138.94;4990744;28;19927;-60
2022/08/09 01:10:38;;;;;;;;;;;;;;;25.44;45.67;95135.38;4989320;28;19922;-59
2022/08/09 01:13:07;;;;;;;;;;;;;;;25.45;45.48;95136.88;4983933;28;19921;-65
2022/08/09 01:15:34;;;;;;;;;;;;;;;25.45;45.45;95134.88;5008509;28;19918;-60
2022/08/09 01:18:04;;;;;;;;;;;;;;;25.48;45.38;95135.81;4996356;28;19917;-61
2022/08/09 01:20:44;;;;;;;;;;;;;;;25.47;45.32;95140.56;4995503;28;20007;-60
2022/08/09 01:23:13;;;;;;;;;;;;;;;25.46;45.35;95141.81;4985580;28;19918;-60
2022/08/09 01:25:41;;;;;;;;;;;;;;;25.44;45.64;95143.59;4994179;28;19918;-66
2022/08/09 01:28:06;;;;;;;;;;;;;;;25.44;45.91;95140.84;4985624;28;19914;-67
2022/08/09 01:30:32;;;;;;;;;;;;;;;25.42;46.13;95148.84;5012373;28;19921;-69
2022/08/09 01:32:57;;;;;;;;;;;;;;;25.39;45.65;95144.41;4993147;28;19910;-64
2022/08/09 01:35:29;;;;;;;;;;;;;;;25.42;45.25;95126.97;4984337;28;20020;-59
2022/08/09 01:37:55;;;;;;;;;;;;;;;25.45;45.33;95125.94;4983682;28;20008;-60
2022/08/09 01:40:20;;;;;;;;;;;;;;;25.49;45.12;95116.16;4985160;28;20024;-66
2022/08/09 01:42:46;;;;;;;;;;;;;;;25.49;45.25;95109.97;4991761;28;19917;-58
2022/08/09 01:45:11;;;;;;;;;;;;;;;25.52;44.92;95100.72;4984955;28;19925;-67
2022/08/09 01:47:36;;;;;;;;;;;;;;;25.57;45.06;95094.41;4998888;28;19980;-60
2022/08/09 01:50:03;;;;;;;;;;;;;;;25.56;45.39;95087.47;4982020;28;19910;-59
2022/08/09 01:52:28;;;;;;;;;;;;;;;25.54;44.90;95079.06;4983323;28;19967;-59
2022/08/09 01:54:54;;;;;;;;;;;;;;;25.45;45.62;95093.84;4989988;28;19913;-65
2022/08/09 01:57:20;;;;;;;;;;;;;;;25.36;45.97;95098.97;5002192;28;19918;-62
2022/08/09 01:59:46;;;;;;;;;;;;;;;25.29;45.69;95091.38;4993452;28;19917;-66
2022/08/09 02:02:12;;;;;;;;;;;;;;;25.24;45.48;95089.47;4994228;28;19918;-63
2022/08/09 02:04:37;;;;;;;;;;;;;;;25.20;45.62;95094.50;4991013;28;19924;-65
2022/08/09 02:07:14;;;;;;;;;;;;;;;25.17;45.49;95089.31;4971140;28;20142;-69
2022/08/09 02:09:45;;;;;;;;;;;;;;;25.16;45.52;95088.59;5005918;28;19921;-62
2022/08/09 02:12:11;;;;;;;;;;;;;;;25.14;45.82;95079.44;5000815;28;19924;-65
2022/08/09 02:14:36;;;;;;;;;;;;;;;25.15;45.44;95087.09;4994899;28;19922;-62
2022/08/09 02:17:02;;;;;;;;;;;;;;;25.10;45.69;95079.72;4992354;28;20333;-66
2022/08/09 02:19:27;;;;;;;;;;;;;;;25.10;45.56;95081.75;4997267;28;19923;-60
2022/08/09 02:21:54;;;;;;;;;;;;;;;25.07;45.90;95080.78;4993397;28;20393;-64
2022/08/09 02:24:22;;;;;;;;;;;;;;;25.12;45.91;95082.69;5015114;28;19917;-67
2022/08/09 02:26:47;;;;;;;;;;;;;;;25.09;46.12;95088.44;4993852;28;20024;-65
2022/08/09 02:29:15;;;;;;;;;;;;;;;25.06;46.11;95090.22;4995455;28;20032;-62
2022/08/09 02:31:42;;;;;;;;;;;;;;;25.07;46.00;95083.50;5009186;28;19929;-62
2022/08/09 02:34:09;;;;;;;;;;;;;;;25.12;46.02;95093.59;4987989;28;19945;-64
2022/08/09 02:36:36;;;;;;;;;;;;;;;25.16;46.36;95107.72;4998126;28;19918;-61
2022/08/09 02:39:03;;;;;;;;;;;;;;;25.21;46.58;95106.91;4992268;28;20005;-64
2022/08/09 02:41:31;;;;;;;;;;;;;;;25.30;46.13;95103.78;5006081;28;19917;-59
2022/08/09 02:43:58;;;;;;;;;;;;;;;25.31;46.17;95110.72;4992515;28;20448;-64
2022/08/09 02:46:25;;;;;;;;;;;;;;;25.29;46.16;95112.50;5006352;28;19921;-62
2022/08/09 02:48:51;;;;;;;;;;;;;;;25.23;46.77;95126.28;4989653;28;19914;-66
2022/08/09 02:51:16;;;;;;;;;;;;;;;25.20;46.59;95121.84;4998591;28;19924;-60
2022/08/09 02:53:44;;;;;;;;;;;;;;;25.22;46.92;95119.31;4988284;28;19969;-61
2022/08/09 02:56:09;;;;;;;;;;;;;;;25.23;46.30;95109.88;4997917;28;19921;-67
2022/08/09 02:58:34;;;;;;;;;;;;;;;25.23;46.47;95120.81;4989617;28;19933;-60
2022/08/09 03:01:00;;;;;;;;;;;;;;;25.28;46.41;95106.31;5002537;28;19925;-60
2022/08/09 03:03:25;;;;;;;;;;;;;;;25.29;46.39;95107.78;5003133;28;20430;-59
2022/08/09 03:05:50;;;;;;;;;;;;;;;25.27;46.48;95109.56;4992112;28;19917;-61
2022/08/09 03:08:16;;;;;;;;;;;;;;;25.18;47.02;95116.13;4991938;28;19921;-61
2022/08/09 03:10:42;;;;;;;;;;;;;;;25.13;47.01;95122.41;5005073;28;20307;-60
2022/08/09 03:13:08;;;;;;;;;;;;;;;25.16;47.34;95121.38;5013743;28;20032;-59
2022/08/09 03:15:33;;;;;;;;;;;;;;;25.14;47.24;95117.69;5003375;28;20006;-59
2022/08/09 03:17:58;;;;;;;;;;;;;;;25.10;47.15;95118.00;4991856;28;19925;-63
2022/08/09 03:20:24;;;;;;;;;;;;;;;25.14;46.92;95112.97;4979323;28;19917;-64
2022/08/09 03:22:49;;;;;;;;;;;;;;;25.11;46.71;95108.56;5008993;28;19921;-61
2022/08/09 03:25:15;;;;;;;;;;;;;;;25.11;47.27;95114.00;4980511;28;19944;-58
2022/08/09 03:27:44;;;;;;;;;;;;;;;25.04;46.78;95120.06;4986304;28;19921;-60
2022/08/09 03:30:10;;;;;;;;;;;;;;;24.96;47.03;95124.63;4998677;28;19917;-62
2022/08/09 03:32:35;;;;;;;;;;;;;;;24.96;47.62;95124.63;5016004;28;19975;-59
2022/08/09 03:35:00;;;;;;;;;;;;;;;24.90;47.82;95123.97;5002926;28;20024;-62
2022/08/09 03:37:26;;;;;;;;;;;;;;;24.86;48.09;95126.22;4986860;28;19952;-66
2022/08/09 03:39:52;;;;;;;;;;;;;;;24.88;48.12;95125.72;4986437;28;20016;-65
2022/08/09 03:42:17;;;;;;;;;;;;;;;24.89;48.39;95130.66;4986679;28;19918;-61
2022/08/09 03:44:42;;;;;;;;;;;;;;;24.88;48.25;95134.63;4989136;28;20456;-69
2022/08/09 03:47:07;;;;;;;;;;;;;;;24.84;48.13;95133.44;4985596;28;19924;-60
2022/08/09 03:49:33;;;;;;;;;;;;;;;24.82;47.97;95131.25;4986517;28;19918;-63
2022/08/09 03:51:58;;;;;;;;;;;;;;;24.84;48.09;95136.19;5004059;28;19918;-61
2022/08/09 03:54:25;;;;;;;;;;;;;;;24.78;48.30;95140.25;4986689;28;19929;-60
2022/08/09 03:56:51;;;;;;;;;;;;;;;24.76;48.42;95142.75;5006872;28;19976;-62
2022/08/09 03:59:16;;;;;;;;;;;;;;;24.72;48.91;95137.56;5006507;28;20422;-60
2022/08/09 04:01:41;;;;;;;;;;;;;;;24.77;48.87;95138.75;4981231;28;19917;-62
2022/08/09 04:04:08;;;;;;;;;;;;;;;24.63;48.57;95112.63;5000870;28;19917;-61
2022/08/09 04:06:35;;;;;;;;;;;;;;;24.80;48.56;95135.00;4986209;28;19928;-65
2022/08/09 04:09:05;;;;;;;;;;;;;;;24.85;48.89;95135.66;4999487;28;19910;-58
2022/08/09 04:11:31;;;;;;;;;;;;;;;24.88;48.86;95137.38;4993779;28;19924;-60
2022/08/09 04:13:56;;;;;;;;;;;;;;;24.94;48.48;95142.78;5016849;28;19906;-58
2022/08/09 04:16:21;;;;;;;;;;;;;;;24.96;48.61;95135.56;5000617;28;19927;-58
2022/08/09 04:18:47;;;;;;;;;;;;;;;25.00;48.87;95146.94;5004291;28;20019;-57
2022/08/09 04:21:12;;;;;;;;;;;;;;;25.05;48.57;95137.94;5002582;28;19978;-57
2022/08/09 04:23:37;;;;;;;;;;;;;;;25.13;48.22;95138.81;4993582;28;19918;-58
2022/08/09 04:26:03;;;;;;;;;;;;;;;25.22;48.12;95135.00;5001316;28;19981;-58
2022/08/09 04:28:28;;;;;;;;;;;;;;;25.33;48.01;95136.31;4995973;28;20315;-62
2022/08/09 04:30:53;;;;;;;;;;;;;;;25.46;47.44;95138.34;4993339;28;19914;-61
2022/08/09 04:33:19;;;;;;;;;;;;;;;25.59;47.24;95135.66;4998742;28;20372;-65
2022/08/09 04:35:44;;;;;;;;;;;;;;;25.73;47.36;95148.16;4996552;28;19921;-62
2022/08/09 04:38:10;;;;;;;;;;;;;;;25.84;47.03;95135.03;4986624;28;19917;-59
2022/08/09 04:40:47;;;;;;;;;;;;;;;25.93;46.52;95143.59;4995317;28;20470;-66
2022/08/09 04:43:15;;;;;;;;;;;;;;;26.10;46.30;95146.78;5001365;28;20436;-62
2022/08/09 04:45:41;;;;;;;;;;;;;;;26.21;46.34;95146.56;4998755;28;19917;-58
2022/08/09 04:48:06;;;;;;;;;;;;;;;26.32;46.12;95146.41;4992174;28;20297;-58
2022/08/09 04:50:32;;;;;;;;;;;;;;;26.49;45.48;95157.81;4998104;28;19921;-62
2022/08/09 04:52:57;;;;;;;;;;;;;;;26.63;45.45;95159.28;5001273;28;19925;-60
2022/08/09 04:55:22;;;;;;;;;;;;;;;26.74;45.09;95159.81;4985313;28;19909;-64
2022/08/09 04:57:48;;;;;;;;;;;;;;;26.87;45.02;95163.25;5003430;28;19917;-63
2022/08/09 05:00:13;;;;;;;;;;;;;;;26.98;45.10;95160.34;4987437;28;19925;-60
2022/08/09 05:02:40;;;;;;;;;;;;;;;27.11;44.65;95160.31;4986541;28;19976;-59
2022/08/09 05:05:06;;;;;;;;;;;;;;;27.20;43.80;95162.59;5000068;28;20280;-61
2022/08/09 05:07:31;;;;;;;;;;;;;;;27.28;43.59;95157.97;4990839;28;19933;-69
2022/08/09 05:09:56;;;;;;;;;;;;;;;27.39;43.72;95160.47;4992258;28;19921;-61
2022/08/09 05:12:22;;;;;;;;;;;;;;;27.46;42.95;95168.03;4996695;28;19956;-68
2022/08/09 05:14:47;;;;;;;;;;;;;;;27.58;43.25;95159.06;4992978;28;19921;-63
2022/08/09 05:17:12;;;;;;;;;;;;;;;27.63;43.22;95166.41;4991611;28;19940;-61
2022/08/09 05:19:37;;;;;;;;;;;;;;;27.71;43.21;95167.22;4992585;28;19975;-60
2022/08/09 05:22:03;;;;;;;;;;;;;;;27.82;42.91;95164.97;5001606;28;20000;-59
2022/08/09 05:24:28;;;;;;;;;;;;;;;27.95;42.52;95156.66;4998761;28;19929;-63
2022/08/09 05:26:54;;;;;;;;;;;;;;;28.05;42.73;95168.63;4985944;28;19973;-65
2022/08/09 05:29:19;;;;;;;;;;;;;;;28.15;42.16;95172.41;4996459;28;19917;-63
2022/08/09 05:31:45;;;;;;;;;;;;;;;28.21;42.82;95170.28;4996956;28;20435;-59
2022/08/09 05:34:11;;;;;;;;;;;;;;;28.14;42.44;95154.47;5006146;28;19918;-59
2022/08/09 05:36:36;;;;;;;;;;;;;;;28.34;42.52;95178.41;4985696;28;19916;-60
2022/08/09 05:39:03;;;;;;;;;;;;;;;28.42;42.46;95181.97;4985768;28;19927;-58
2022/08/09 05:41:28;;;;;;;;;;;;;;;28.39;42.31;95180.31;4986024;28;19918;-57
2022/08/09 05:43:54;;;;;;;;;;;;;;;28.48;42.17;95179.81;4990026;28;20004;-66
2022/08/09 05:46:19;;;;;;;;;;;;;;;28.53;42.30;95178.94;4990954;28;19935;-61
2022/08/09 05:48:44;;;;;;;;;;;;;;;28.61;41.48;95176.97;4989581;28;19970;-60
2022/08/09 05:51:10;;;;;;;;;;;;;;;28.68;41.27;95179.06;4990995;28;20732;-64
2022/08/09 05:53:35;;;;;;;;;;;;;;;28.72;41.44;95175.41;4988972;28;20027;-66
2022/08/09 05:56:00;;;;;;;;;;;;;;;28.77;41.39;95182.81;4988950;28;19921;-59
2022/08/09 05:58:25;;;;;;;;;;;;;;;28.80;41.52;95176.22;4998356;28;19928;-65
2022/08/09 06:00:51;;;;;;;;;;;;;;;28.91;40.95;95181.41;4993920;28;20400;-58
2022/08/09 06:03:16;;;;;;;;;;;;;;;28.92;41.22;95177.38;4985825;28;20349;-58
2022/08/09 06:05:41;;;;;;;;;;;;;;;28.99;41.07;95171.19;4988421;28;20269;-57
2022/08/09 06:08:07;;;;;;;;;;;;;;;29.02;40.38;95172.84;4990632;28;20734;-56
2022/08/09 06:10:38;;;;;;;;;;;;;;;29.05;40.11;95173.78;5007923;28;19948;-67
2022/08/09 06:13:04;;;;;;;;;;;;;;;29.17;40.07;95178.41;5000921;28;19928;-61
2022/08/09 06:15:29;;;;;;;;;;;;;;;29.20;40.35;95172.56;4998769;28;20423;-69
2022/08/09 06:17:55;;;;;;;;;;;;;;;29.32;40.25;95176.47;5003316;28;20020;-60
2022/08/09 06:20:20;;;;;;;;;;;;;;;29.36;39.80;95165.13;4990261;28;19931;-63
2022/08/09 06:22:45;;;;;;;;;;;;;;;29.29;39.98;95149.34;4987630;28;19937;-56
2022/08/09 06:25:11;;;;;;;;;;;;;;;29.46;39.72;95174.34;4987817;28;19922;-56
2022/08/09 06:27:36;;;;;;;;;;;;;;;29.49;39.76;95178.75;4988771;28;19921;-63
2022/08/09 06:30:02;;;;;;;;;;;;;;;29.54;39.49;95178.59;5000610;28;20399;-65
2022/08/09 06:32:27;;;;;;;;;;;;;;;29.66;39.82;95170.75;4991835;28;19928;-62
2022/08/09 06:34:52;;;;;;;;;;;;;;;29.81;39.15;95172.25;4991398;28;19929;-69
2022/08/09 06:37:17;;;;;;;;;;;;;;;29.83;39.16;95172.44;4991192;28;20739;-60
2022/08/09 06:39:43;;;;;;;;;;;;;;;29.82;39.31;95168.22;4993427;28;19921;-62
2022/08/09 06:42:08;;;;;;;;;;;;;;;29.75;39.48;95168.91;4987211;28;19980;-58
2022/08/09 06:44:33;;;;;;;;;;;;;;;29.69;39.52;95164.88;4989393;28;20332;-70
2022/08/09 06:46:59;;;;;;;;;;;;;;;29.60;39.29;95168.16;4997221;28;20400;-66
2022/08/09 06:49:24;;;;;;;;;;;;;;;29.47;39.79;95173.06;5006511;28;20026;-69
2022/08/09 06:51:49;;;;;;;;;;;;;;;29.38;40.06;95162.56;5005959;28;20376;-64
2022/08/09 06:54:15;;;;;;;;;;;;;;;29.25;40.30;95165.44;5013164;28;20006;-62
2022/08/09 06:56:40;;;;;;;;;;;;;;;29.21;39.66;95165.78;5008343;28;20362;-63
2022/08/09 06:59:05;;;;;;;;;;;;;;;29.12;40.27;95168.31;5008869;28;19917;-65
2022/08/09 07:01:31;;;;;;;;;;;;;;;29.04;39.95;95162.03;5000011;28;19918;-61
2022/08/09 07:03:56;;;;;;;;;;;;;;;28.99;39.58;95165.69;4989995;28;19925;-68
2022/08/09 07:06:21;;;;;;;;;;;;;;;28.93;39.73;95162.34;4992918;28;19921;-64
2022/08/09 07:08:47;;;;;;;;;;;;;;;28.80;40.25;95159.72;4999735;28;20411;-60
2022/08/09 07:11:12;;;;;;;;;;;;;;;28.76;40.34;95156.59;5001115;28;19971;-67
2022/08/09 07:13:37;;;;;;;;;;;;;;;28.71;40.37;95156.72;4992355;28;19922;-63
2022/08/09 07:16:03;;;;;;;;;;;;;;;28.65;40.41;95164.34;4994417;28;20419;-66
2022/08/09 07:18:28;;;;;;;;;;;;;;;28.59;40.73;95161.00;5003504;28;19924;-64
2022/08/09 07:20:54;;;;;;;;;;;;;;;28.55;40.79;95159.88;4992859;28;20044;-67
2022/08/09 07:23:19;;;;;;;;;;;;;;;28.50;40.81;95160.78;4987891;28;19918;-65
2022/08/09 07:25:45;;;;;;;;;;;;;;;28.45;40.93;95153.41;5000219;28;19921;-59
2022/08/09 07:28:11;;;;;;;;;;;;;;;28.43;41.68;95158.69;5002328;28;19928;-61
2022/08/09 07:30:37;;;;;;;;;;;;;;;28.35;41.81;95163.41;4986868;28;19964;-62
2022/08/09 07:33:02;;;;;;;;;;;;;;;28.30;42.06;95173.28;5003257;28;20019;-58
2022/08/09 07:35:28;;;;;;;;;;;;;;;28.26;42.56;95161.16;4999828;28;19924;-64
2022/08/09 07:37:53;;;;;;;;;;;;;;;28.25;42.22;95160.41;4990826;28;20345;-69
2022/08/09 07:40:18;;;;;;;;;;;;;;;28.24;41.86;95166.44;5004036;28;19918;-62
2022/08/09 07:43:10;;;;;;;;;;;;;;;28.22;42.38;95160.78;4994726;28;19921;-60
2022/08/09 07:45:35;;;;;;;;;;;;;;;28.17;42.87;95163.66;5001176;28;19932;-60
2022/08/09 07:48:00;;;;;;;;;;;;;;;28.14;42.70;95154.47;4985905;28;19913;-62
2022/08/09 07:50:26;;;;;;;;;;;;;;;28.12;42.63;95157.03;4998689;28;19917;-58
2022/08/09 07:52:51;;;;;;;;;;;;;;;28.10;42.81;95154.09;4996931;28;19921;-63
2022/08/09 07:55:17;;;;;;;;;;;;;;;28.07;42.30;95155.13;4988986;28;19973;-61
2022/08/09 07:57:44;;;;;;;;;;;;;;;28.05;42.38;95157.66;4996567;28;20315;-58
2022/08/09 08:00:10;;;;;;;;;;;;;;;28.03;42.75;95165.69;4994333;28;19913;-68
2022/08/09 08:02:35;;;;;;;;;;;;;;;28.02;43.04;95155.25;4993809;28;19943;-61
2022/08/09 08:05:00;;;;;;;;;;;;;;;28.00;43.12;95160.56;4997844;28;19917;-64
2022/08/09 08:07:26;;;;;;;;;;;;;;;27.97;42.74;95156.84;4996957;28;19971;-62
2022/08/09 08:09:51;;;;;;;;;;;;;;;27.95;42.61;95148.44;5000111;28;19989;-60
2022/08/09 08:12:17;;;;;;;;;;;;;;;27.93;42.85;95150.97;5006273;28;19925;-62
2022/08/09 08:14:43;;;;;;;;;;;;;;;27.93;42.54;95150.22;5000867;28;19921;-62
2022/08/09 08:17:08;;;;;;;;;;;;;;;27.92;42.50;95148.75;4997804;28;20430;-62
2022/08/09 08:19:33;;;;;;;;;;;;;;;27.89;42.52;95145.09;4992364;28;20370;-67
2022/08/09 08:21:59;;;;;;;;;;;;;;;27.88;42.81;95135.38;4988238;28;20368;-58
2022/08/09 08:24:24;;;;;;;;;;;;;;;27.88;43.12;95138.09;4989905;28;20007;-60
2022/08/09 08:26:49;;;;;;;;;;;;;;;27.87;42.64;95130.41;4984674;28;19917;-58
2022/08/09 08:29:18;;;;;;;;;;;;;;;27.87;42.82;95133.88;4995562;28;19910;-61
2022/08/09 08:31:43;;;;;;;;;;;;;;;27.84;42.67;95126.72;4992503;28;19917;-57
2022/08/09 08:34:08;;;;;;;;;;;;;;;27.84;43.04;95121.22;4991222;28;19972;-64
2022/08/09 08:36:34;;;;;;;;;;;;;;;27.84;43.22;95126.00;4995109;28;20268;-59
2022/08/09 08:38:59;;;;;;;;;;;;;;;27.82;42.62;95129.28;4992388;28;20450;-59
2022/08/09 08:41:25;;;;;;;;;;;;;;;27.82;42.48;95134.03;4986626;28;20478;-57
2022/08/09 08:43:50;;;;;;;;;;;;;;;27.79;42.66;95119.38;5004129;28;19924;-63
2022/08/09 08:46:16;;;;;;;;;;;;;;;27.79;42.73;95111.13;4983187;28;19980;-58
2022/08/09 08:48:41;;;;;;;;;;;;;;;27.79;42.00;95111.13;4985707;28;19914;-58
2022/08/09 08:51:06;;;;;;;;;;;;;;;27.61;41.80;95085.88;4995178;28;19955;-58
2022/08/09 08:53:32;;;;;;;;;;;;;;;27.77;42.58;95121.91;4991634;28;19902;-57
2022/08/09 08:55:57;;;;;;;;;;;;;;;27.78;42.58;95104.16;5004236;28;19917;-57
2022/08/09 08:58:23;;;;;;;;;;;;;;;27.78;42.57;95114.41;4994013;28;19918;-67
2022/08/09 09:00:48;;;;;;;;;;;;;;;27.78;41.85;95108.91;4989767;28;20496;-57
2022/08/09 09:03:13;;;;;;;;;;;;;;;27.78;41.73;95106.91;4994212;28;20300;-60
2022/08/09 09:05:39;;;;;;;;;;;;;;;27.78;41.59;95095.19;4996430;28;22267;-58
2022/08/09 09:08:04;;;;;;;;;;;;;;;27.77;41.54;95093.72;4989637;28;19925;-58
2022/08/09 09:10:30;;;;;;;;;;;;;;;27.77;41.77;95099.97;4987539;28;19914;-57
2022/08/09 09:12:56;;;;;;;;;;;;;;;27.78;41.92;95093.19;4997315;28;20439;-57
2022/08/09 09:15:21;;;;;;;;;;;;;;;27.78;42.19;95093.19;5009290;28;20036;-57
2022/08/09 09:17:46;;;;;;;;;;;;;;;27.80;41.23;95093.41;5002027;28;20411;-58
2022/08/09 09:20:12;;;;;;;;;;;;;;;27.80;40.84;95084.41;4989677;28;20020;-58
2022/08/09 09:22:54;;;;;;;;;;;;;;;27.81;41.61;95089.38;4987717;28;19956;-58
2022/08/09 09:25:29;;;;;;;;;;;;;;;27.84;41.83;95088.28;4995448;28;19925;-57
2022/08/09 09:27:55;;;;;;;;;;;;;;;27.89;41.99;95084.69;4983788;28;19910;-59
2022/08/09 09:30:20;;;;;;;;;;;;;;;27.95;41.19;95082.53;4995034;28;19928;-59
2022/08/09 09:32:45;;;;;;;;;;;;;;;28.00;40.88;95067.94;4982243;28;19960;-63
2022/08/09 09:35:11;;;;;;;;;;;;;;;28.23;40.66;95079.81;5002867;28;19929;-61
2022/08/09 09:37:37;;;;;;;;;;;;;;;28.23;40.23;95051.63;5000076;28;19964;-62
2022/08/09 09:40:03;;;;;;;;;;;;;;;28.47;39.63;95076.66;4976052;28;19921;-58
2022/08/09 09:42:31;;;;;;;;;;;;;;;28.62;39.07;95068.50;4985457;28;19922;-60
2022/08/09 09:45:00;;;;;;;;;;;;;;;28.73;37.71;95066.94;4983194;28;19913;-59
2022/08/09 09:47:25;;;;;;;;;;;;;;;28.86;38.48;95064.06;4987287;28;20012;-65
2022/08/09 09:49:51;;;;;;;;;;;;;;;29.00;38.12;95068.16;4993935;28;20433;-61
2022/08/09 09:52:17;;;;;;;;;;;;;;;29.17;37.54;95060.13;4987938;28;20467;-59
2022/08/09 09:54:42;;;;;;;;;;;;;;;29.30;36.82;95074.50;4988217;28;20060;-58
2022/08/09 09:57:21;;;;;;;;;;;;;;;29.42;36.06;95059.09;4988438;28;19922;-57
2022/08/09 09:59:48;;;;;;;;;;;;;;;29.60;35.16;95057.31;4983149;28;20051;-63
2022/08/09 10:02:13;;;;;;;;;;;;;;;29.70;34.92;95056.19;4996331;28;19924;-58
2022/08/09 10:04:39;;;;;;;;;;;;;;;29.80;34.22;95063.38;4994423;28;19917;-60
2022/08/09 10:07:04;;;;;;;;;;;;;;;29.87;33.42;95054.38;4989834;28;19929;-58
2022/08/09 10:09:46;;;;;;;;;;;;;;;29.95;33.31;95057.88;4989320;28;20290;-57
2022/08/09 10:12:13;;;;;;;;;;;;;;;30.02;31.53;95048.88;4993568;28;19922;-64
2022/08/09 10:14:38;;;;;;;;;;;;;;;30.13;31.38;95054.00;5001275;28;19959;-61
2022/08/09 10:17:10;;;;;;;;;;;;;;;30.22;31.92;95056.19;4979073;28;19971;-72
2022/08/09 10:19:35;;;;;;;;;;;;;;;30.28;31.40;95048.47;5020374;28;19932;-71
2022/08/09 10:22:01;;;;;;;;;;;;;;;30.32;31.42;95048.84;5016399;28;19913;-67
2022/08/09 10:24:26;;;;;;;;;;;;;;;30.39;31.77;95048.13;4995246;28;19932;-69
2022/08/09 10:26:54;;;;;;;;;;;;;;;30.52;31.71;95047.88;4994224;28;19967;-65
2022/08/09 10:29:20;;;;;;;;;;;;;;;30.62;32.11;95043.28;4995490;28;19920;-58
2022/08/09 10:31:45;;;;;;;;;;;;;;;30.65;31.12;95043.59;5008606;28;20418;-59
2022/08/09 10:34:11;;;;;;;;;;;;;;;30.75;30.36;95058.28;4989311;28;19918;-67
2022/08/09 10:36:37;;;;;;;;;;;;;;;30.80;30.98;95040.78;4999987;28;19925;-59
2022/08/09 10:39:02;;;;;;;;;;;;;;;30.83;30.57;95047.94;4990520;28;19917;-62
2022/08/09 10:41:27;;;;;;;;;;;;;;;30.91;30.52;95043.19;5006778;28;19971;-72
2022/08/09 10:43:53;;;;;;;;;;;;;;;30.93;31.10;95040.59;5006202;28;19917;-65
2022/08/09 10:46:25;;;;;;;;;;;;;;;30.94;31.18;95042.06;5016023;28;20400;-66
2022/08/09 10:48:59;;;;;;;;;;;;;;;30.92;30.79;95044.63;5010423;28;19928;-73
2022/08/09 10:51:25;;;;;;;;;;;;;;;30.88;31.78;95044.31;4994100;28;19944;-69
2022/08/09 10:53:54;;;;;;;;;;;;;;;30.85;30.11;95039.88;4990659;28;20383;-70
2022/08/09 10:56:21;;;;;;;;;;;;;;;30.74;30.84;95034.75;4989466;28;20427;-63
2022/08/09 10:58:47;;;;;;;;;;;;;;;30.65;31.41;95025.59;4997095;28;20320;-60
2022/08/09 11:01:30;;;;;;;;;;;;;;;30.59;30.98;95041.63;4995494;28;20414;-63
2022/08/09 11:04:14;;;;;;;;;;;;;;;30.51;31.32;95032.63;4991515;28;19921;-68
2022/08/09 11:06:42;;;;;;;;;;;;;;;30.44;31.40;95033.41;4990590;28;19972;-67
2022/08/09 11:09:08;;;;;;;;;;;;;;;30.35;31.67;95036.72;4989442;28;19914;-67
2022/08/09 11:12:05;;;;;;;;;;;;;;;30.22;31.54;95036.91;4997905;28;19921;-69
2022/08/09 11:14:34;;;;;;;;;;;;;;;30.11;31.41;95034.53;4982894;28;19921;-61
2022/08/09 11:17:00;;;;;;;;;;;;;;;29.99;29.96;95044.47;4999452;28;20343;-64
2022/08/09 11:19:44;;;;;;;;;;;;;;;29.91;30.83;95043.75;4993885;28;19918;-60
2022/08/09 11:22:09;;;;;;;;;;;;;;;29.81;31.65;95040.06;4992544;28;20402;-60
2022/08/09 11:24:53;;;;;;;;;;;;;;;29.76;31.13;95032.72;4987352;28;20071;-64
2022/08/09 11:27:31;;;;;;;;;;;;;;;29.70;31.01;95023.91;4989725;28;19924;-61
2022/08/09 11:29:57;;;;;;;;;;;;;;;29.66;31.43;95022.06;4985645;28;19921;-61
2022/08/09 11:32:41;;;;;;;;;;;;;;;29.63;30.79;95020.41;4989302;28;20004;-60
2022/08/09 11:35:16;;;;;;;;;;;;;;;29.58;31.77;95021.31;4993939;28;19924;-62
2022/08/09 11:37:42;;;;;;;;;;;;;;;29.54;31.86;95021.69;4993724;28;19992;-59
2022/08/09 11:40:09;;;;;;;;;;;;;;;29.53;31.85;95019.50;4990094;28;19917;-59
2022/08/09 11:42:42;;;;;;;;;;;;;;;29.46;31.49;95011.94;4973742;28;19917;-59
2022/08/09 11:45:17;;;;;;;;;;;;;;;29.40;31.88;95019.66;4988687;28;19921;-68
2022/08/09 11:47:46;;;;;;;;;;;;;;;29.33;31.92;95025.91;4991308;28;19913;-73
2022/08/09 11:50:11;;;;;;;;;;;;;;;29.29;32.43;95012.47;4991888;28;20264;-67
2022/08/09 11:52:55;;;;;;;;;;;;;;;29.27;31.55;95019.84;4995557;28;20455;-66
2022/08/09 11:55:39;;;;;;;;;;;;;;;29.23;32.14;95013.91;4994918;28;20375;-67
2022/08/09 11:58:10;;;;;;;;;;;;;;;29.20;32.63;95026.03;4989781;28;19918;-70
2022/08/09 12:00:37;;;;;;;;;;;;;;;29.18;32.22;95023.09;4995139;28;19925;-67
2022/08/09 12:03:02;;;;;;;;;;;;;;;29.15;32.50;95026.19;5003437;28;19918;-73
2022/08/09 12:05:31;;;;;;;;;;;;;;;29.08;32.50;95019.41;4998440;28;19984;-71
2022/08/09 12:07:57;;;;;;;;;;;;;;;29.06;33.43;95026.72;4996988;28;19921;-66
2022/08/09 12:10:23;;;;;;;;;;;;;;;29.02;32.92;95021.56;4997198;28;19923;-59
2022/08/09 12:12:49;;;;;;;;;;;;;;;28.99;32.42;95022.66;4991632;28;19918;-62
2022/08/09 12:15:19;;;;;;;;;;;;;;;28.95;33.14;95014.06;4996148;28;19924;-61
2022/08/09 12:17:45;;;;;;;;;;;;;;;28.93;32.81;95008.34;4983203;28;20049;-59
2022/08/09 12:20:11;;;;;;;;;;;;;;;28.91;32.03;95016.44;4988065;28;20425;-62
2022/08/09 12:22:37;;;;;;;;;;;;;;;28.88;33.00;95012.00;4989077;28;20021;-63
2022/08/09 12:25:15;;;;;;;;;;;;;;;28.85;31.69;95002.09;4984089;28;19914;-57
2022/08/09 12:27:40;;;;;;;;;;;;;;;28.82;31.71;95003.19;4985261;28;19951;-60
2022/08/09 12:30:06;;;;;;;;;;;;;;;28.81;32.06;95001.72;4986524;28;19953;-59
2022/08/09 12:32:31;;;;;;;;;;;;;;;28.79;32.39;94993.28;4985621;28;19968;-59
2022/08/09 12:34:58;;;;;;;;;;;;;;;28.78;32.15;94986.31;4984901;28;20012;-58
2022/08/09 12:37:33;;;;;;;;;;;;;;;28.80;32.74;94988.53;4983890;28;20384;-58
2022/08/09 12:39:59;;;;;;;;;;;;;;;28.87;33.13;94977.53;4994280;28;19925;-58
2022/08/09 12:42:24;;;;;;;;;;;;;;;28.82;31.82;94975.72;4984142;28;19918;-59
2022/08/09 12:44:50;;;;;;;;;;;;;;;28.82;32.14;94969.47;4990396;28;19917;-66